sensor_id;sensor_type;location;lat;lon;timestamp;temperature;humidity
8832;DHT22;4452;50.756;4.472;2022-10-04T00:01:30;9.50;99.90
8832;DHT22;4452;50.756;4.472;2022-10-04T00:04:08;9.30;99.90
8832;DHT22;4452;50.756;4.472;2022-10-04T00:06:36;9.30;99.90
8832;DHT22;4452;50.756;4.472;2022-10-04T00:09:14;9.20;99.90
8832;DHT22;4452;50.756;4.472;2022-10-04T00:11:45;9.20;99.90
8832;DHT22;4452;50.756;4.472;2022-10-04T00:16:43;9.20;99.90
8832;DHT22;4452;50.756;4.472;2022-10-04T00:24:21;9.10;99.90
8832;DHT22;4452;50.756;4.472;2022-10-04T00:29:29;9.00;99.90
8832;DHT22;4452;50.756;4.472;2022-10-04T00:37:16;9.00;99.90
8832;DHT22;4452;50.756;4.472;2022-10-04T00:39:54;9.00;99.90
8832;DHT22;4452;50.756;4.472;2022-10-04T00:42:29;8.90;99.90
8832;DHT22;4452;50.756;4.472;2022-10-04T00:45:09;8.80;99.90
8832;DHT22;4452;50.756;4.472;2022-10-04T00:50:19;8.80;99.90
8832;DHT22;4452;50.756;4.472;2022-10-04T00:52:58;8.70;99.90
8832;DHT22;4452;50.756;4.472;2022-10-04T00:55:29;8.80;99.90
8832;DHT22;4452;50.756;4.472;2022-10-04T00:58:00;8.70;99.90
8832;DHT22;4452;50.756;4.472;2022-10-04T01:00:29;8.70;99.90
8832;DHT22;4452;50.756;4.472;2022-10-04T01:03:01;8.60;99.90
8832;DHT22;4452;50.756;4.472;2022-10-04T01:05:35;8.60;99.90
8832;DHT22;4452;50.756;4.472;2022-10-04T01:08:16;8.60;99.90
8832;DHT22;4452;50.756;4.472;2022-10-04T01:11:13;8.60;99.90
8832;DHT22;4452;50.756;4.472;2022-10-04T01:16:42;8.50;99.90
8832;DHT22;4452;50.756;4.472;2022-10-04T01:24:39;8.50;99.90
8832;DHT22;4452;50.756;4.472;2022-10-04T01:27:35;8.40;99.90
8832;DHT22;4452;50.756;4.472;2022-10-04T01:30:14;8.40;99.90
8832;DHT22;4452;50.756;4.472;2022-10-04T01:32:41;8.40;99.90
8832;DHT22;4452;50.756;4.472;2022-10-04T01:35:09;8.40;99.90
8832;DHT22;4452;50.756;4.472;2022-10-04T01:37:38;8.40;99.90
8832;DHT22;4452;50.756;4.472;2022-10-04T01:40:06;8.40;99.90
8832;DHT22;4452;50.756;4.472;2022-10-04T01:42:47;8.50;99.90
8832;DHT22;4452;50.756;4.472;2022-10-04T01:47:52;8.40;99.90
8832;DHT22;4452;50.756;4.472;2022-10-04T01:50:26;8.40;99.90
8832;DHT22;4452;50.756;4.472;2022-10-04T01:52:58;8.40;99.90
8832;DHT22;4452;50.756;4.472;2022-10-04T01:55:32;8.30;99.90
8832;DHT22;4452;50.756;4.472;2022-10-04T01:58:08;8.30;99.90
8832;DHT22;4452;50.756;4.472;2022-10-04T02:00:39;8.30;99.90
8832;DHT22;4452;50.756;4.472;2022-10-04T02:03:17;8.30;99.90
8832;DHT22;4452;50.756;4.472;2022-10-04T02:05:58;8.30;99.90
8832;DHT22;4452;50.756;4.472;2022-10-04T02:08:28;8.30;99.90
8832;DHT22;4452;50.756;4.472;2022-10-04T02:10:55;8.40;99.90
8832;DHT22;4452;50.756;4.472;2022-10-04T02:13:23;8.30;99.90
8832;DHT22;4452;50.756;4.472;2022-10-04T02:15:53;8.40;99.90
8832;DHT22;4452;50.756;4.472;2022-10-04T02:18:20;8.40;99.90
8832;DHT22;4452;50.756;4.472;2022-10-04T02:20:48;8.30;99.90
8832;DHT22;4452;50.756;4.472;2022-10-04T02:23:17;8.30;99.90
8832;DHT22;4452;50.756;4.472;2022-10-04T02:25:43;8.20;99.90
8832;DHT22;4452;50.756;4.472;2022-10-04T02:28:10;8.20;99.90
8832;DHT22;4452;50.756;4.472;2022-10-04T02:30:40;8.20;99.90
8832;DHT22;4452;50.756;4.472;2022-10-04T02:33:06;8.20;99.90
8832;DHT22;4452;50.756;4.472;2022-10-04T02:35:37;8.20;99.90
8832;DHT22;4452;50.756;4.472;2022-10-04T02:40:43;8.10;99.90
8832;DHT22;4452;50.756;4.472;2022-10-04T02:43:26;8.10;99.90
8832;DHT22;4452;50.756;4.472;2022-10-04T02:46:12;8.00;99.90
8832;DHT22;4452;50.756;4.472;2022-10-04T02:48:48;8.00;99.90
8832;DHT22;4452;50.756;4.472;2022-10-04T02:56:38;8.00;99.90
8832;DHT22;4452;50.756;4.472;2022-10-04T02:59:05;8.00;99.90
8832;DHT22;4452;50.756;4.472;2022-10-04T03:01:51;7.90;99.90
8832;DHT22;4452;50.756;4.472;2022-10-04T03:04:19;7.80;99.90
8832;DHT22;4452;50.756;4.472;2022-10-04T03:06:46;7.80;99.90
8832;DHT22;4452;50.756;4.472;2022-10-04T03:09:13;7.80;99.90
8832;DHT22;4452;50.756;4.472;2022-10-04T03:11:39;7.80;99.90
8832;DHT22;4452;50.756;4.472;2022-10-04T03:14:10;7.70;99.90
8832;DHT22;4452;50.756;4.472;2022-10-04T03:16:42;7.70;99.90
8832;DHT22;4452;50.756;4.472;2022-10-04T03:19:10;7.70;99.90
8832;DHT22;4452;50.756;4.472;2022-10-04T03:21:37;7.70;99.90
8832;DHT22;4452;50.756;4.472;2022-10-04T03:24:05;7.70;99.90
8832;DHT22;4452;50.756;4.472;2022-10-04T03:26:36;7.70;99.90
8832;DHT22;4452;50.756;4.472;2022-10-04T03:29:05;7.80;99.90
8832;DHT22;4452;50.756;4.472;2022-10-04T03:31:40;7.80;99.90
8832;DHT22;4452;50.756;4.472;2022-10-04T03:34:20;7.70;99.90
8832;DHT22;4452;50.756;4.472;2022-10-04T03:36:47;7.70;99.90
8832;DHT22;4452;50.756;4.472;2022-10-04T03:41:50;7.60;99.90
8832;DHT22;4452;50.756;4.472;2022-10-04T03:44:17;7.60;99.90
8832;DHT22;4452;50.756;4.472;2022-10-04T03:46:44;7.50;99.90
8832;DHT22;4452;50.756;4.472;2022-10-04T03:49:16;7.50;99.90
8832;DHT22;4452;50.756;4.472;2022-10-04T03:51:48;7.50;99.90
8832;DHT22;4452;50.756;4.472;2022-10-04T03:54:19;7.50;99.90
8832;DHT22;4452;50.756;4.472;2022-10-04T03:56:47;7.50;99.90
8832;DHT22;4452;50.756;4.472;2022-10-04T03:59:16;7.50;99.90
8832;DHT22;4452;50.756;4.472;2022-10-04T04:01:49;7.40;99.90
8832;DHT22;4452;50.756;4.472;2022-10-04T04:12:07;7.60;99.90
8832;DHT22;4452;50.756;4.472;2022-10-04T04:14:34;7.60;99.90
8832;DHT22;4452;50.756;4.472;2022-10-04T04:19:53;7.60;99.90
8832;DHT22;4452;50.756;4.472;2022-10-04T04:22:21;7.80;99.90
8832;DHT22;4452;50.756;4.472;2022-10-04T04:24:47;7.70;99.90
8832;DHT22;4452;50.756;4.472;2022-10-04T04:27:16;7.60;99.90
8832;DHT22;4452;50.756;4.472;2022-10-04T04:29:51;7.60;99.90
8832;DHT22;4452;50.756;4.472;2022-10-04T04:32:22;7.60;99.90
8832;DHT22;4452;50.756;4.472;2022-10-04T04:37:14;7.50;99.90
8832;DHT22;4452;50.756;4.472;2022-10-04T04:39:40;7.50;99.90
8832;DHT22;4452;50.756;4.472;2022-10-04T04:42:14;7.60;99.90
8832;DHT22;4452;50.756;4.472;2022-10-04T04:44:50;7.50;99.90
8832;DHT22;4452;50.756;4.472;2022-10-04T04:47:31;7.40;99.90
8832;DHT22;4452;50.756;4.472;2022-10-04T04:50:05;7.40;99.90
8832;DHT22;4452;50.756;4.472;2022-10-04T04:52:32;7.40;99.90
8832;DHT22;4452;50.756;4.472;2022-10-04T04:54:59;7.40;99.90
8832;DHT22;4452;50.756;4.472;2022-10-04T04:57:25;7.30;99.90
8832;DHT22;4452;50.756;4.472;2022-10-04T04:59:59;7.30;99.90
8832;DHT22;4452;50.756;4.472;2022-10-04T05:02:27;7.30;99.90
8832;DHT22;4452;50.756;4.472;2022-10-04T05:07:40;7.20;99.90
8832;DHT22;4452;50.756;4.472;2022-10-04T05:10:28;7.20;99.90
8832;DHT22;4452;50.756;4.472;2022-10-04T05:12:57;7.30;99.90
8832;DHT22;4452;50.756;4.472;2022-10-04T05:15:25;7.40;99.90
8832;DHT22;4452;50.756;4.472;2022-10-04T05:17:51;7.40;99.90
8832;DHT22;4452;50.756;4.472;2022-10-04T05:20:17;7.50;99.90
8832;DHT22;4452;50.756;4.472;2022-10-04T05:22:46;7.60;99.90
8832;DHT22;4452;50.756;4.472;2022-10-04T05:25:28;7.60;99.90
8832;DHT22;4452;50.756;4.472;2022-10-04T05:27:56;7.60;99.90
8832;DHT22;4452;50.756;4.472;2022-10-04T05:30:34;7.60;99.90
8832;DHT22;4452;50.756;4.472;2022-10-04T05:33:06;7.60;99.90
8832;DHT22;4452;50.756;4.472;2022-10-04T05:38:46;7.40;99.90
8832;DHT22;4452;50.756;4.472;2022-10-04T05:41:27;7.40;99.90
8832;DHT22;4452;50.756;4.472;2022-10-04T05:43:56;7.30;99.90
8832;DHT22;4452;50.756;4.472;2022-10-04T05:46:29;7.20;99.90
8832;DHT22;4452;50.756;4.472;2022-10-04T05:49:05;7.30;99.90
8832;DHT22;4452;50.756;4.472;2022-10-04T05:51:34;7.20;99.90
8832;DHT22;4452;50.756;4.472;2022-10-04T05:54:12;7.10;99.90
8832;DHT22;4452;50.756;4.472;2022-10-04T06:08:21;7.50;99.90
8832;DHT22;4452;50.756;4.472;2022-10-04T06:11:28;7.50;99.90
8832;DHT22;4452;50.756;4.472;2022-10-04T06:22:25;7.80;99.90
8832;DHT22;4452;50.756;4.472;2022-10-04T06:24:59;7.80;99.90
8832;DHT22;4452;50.756;4.472;2022-10-04T06:30:03;8.00;99.90
8832;DHT22;4452;50.756;4.472;2022-10-04T06:32:49;8.10;99.90
8832;DHT22;4452;50.756;4.472;2022-10-04T06:41:20;8.40;99.90
8832;DHT22;4452;50.756;4.472;2022-10-04T06:44:01;8.40;99.90
8832;DHT22;4452;50.756;4.472;2022-10-04T06:49:20;8.50;99.90
8832;DHT22;4452;50.756;4.472;2022-10-04T06:52:03;8.50;99.90
8832;DHT22;4452;50.756;4.472;2022-10-04T06:58:04;8.60;99.90
8832;DHT22;4452;50.756;4.472;2022-10-04T07:00:56;8.60;99.90
8832;DHT22;4452;50.756;4.472;2022-10-04T07:03:34;8.70;99.90
8832;DHT22;4452;50.756;4.472;2022-10-04T07:06:03;8.70;99.90
8832;DHT22;4452;50.756;4.472;2022-10-04T07:08:46;8.70;99.90
8832;DHT22;4452;50.756;4.472;2022-10-04T07:14:03;9.00;99.90
8832;DHT22;4452;50.756;4.472;2022-10-04T07:30:07;9.40;99.90
8832;DHT22;4452;50.756;4.472;2022-10-04T07:32:37;9.50;99.90
8832;DHT22;4452;50.756;4.472;2022-10-04T07:37:46;9.70;99.90
8832;DHT22;4452;50.756;4.472;2022-10-04T07:40:24;9.80;99.90
8832;DHT22;4452;50.756;4.472;2022-10-04T07:42:57;9.80;99.90
8832;DHT22;4452;50.756;4.472;2022-10-04T07:45:30;10.00;99.90
8832;DHT22;4452;50.756;4.472;2022-10-04T07:48:18;10.10;99.90
8832;DHT22;4452;50.756;4.472;2022-10-04T07:51:01;10.40;99.90
8832;DHT22;4452;50.756;4.472;2022-10-04T07:56:09;10.70;99.90
8832;DHT22;4452;50.756;4.472;2022-10-04T07:59:05;10.80;99.90
8832;DHT22;4452;50.756;4.472;2022-10-04T08:07:39;11.30;99.90
8832;DHT22;4452;50.756;4.472;2022-10-04T08:13:15;11.50;99.90
8832;DHT22;4452;50.756;4.472;2022-10-04T08:15:43;11.70;99.90
8832;DHT22;4452;50.756;4.472;2022-10-04T08:21:08;11.90;99.90
8832;DHT22;4452;50.756;4.472;2022-10-04T08:24:17;12.00;99.90
8832;DHT22;4452;50.756;4.472;2022-10-04T08:54:10;13.40;99.90
8832;DHT22;4452;50.756;4.472;2022-10-04T09:13:26;13.90;99.90
8832;DHT22;4452;50.756;4.472;2022-10-04T09:30:11;14.20;99.90
8832;DHT22;4452;50.756;4.472;2022-10-04T09:43:34;14.70;99.90
8832;DHT22;4452;50.756;4.472;2022-10-04T09:55:12;15.00;99.90
8832;DHT22;4452;50.756;4.472;2022-10-04T09:57:55;15.10;99.90
8832;DHT22;4452;50.756;4.472;2022-10-04T10:23:24;15.70;99.90
8832;DHT22;4452;50.756;4.472;2022-10-04T10:44:39;16.20;99.90
8832;DHT22;4452;50.756;4.472;2022-10-04T10:51:09;16.50;99.90
8832;DHT22;4452;50.756;4.472;2022-10-04T10:56:45;16.60;99.90
8832;DHT22;4452;50.756;4.472;2022-10-04T10:59:46;16.70;99.90
8832;DHT22;4452;50.756;4.472;2022-10-04T11:02:42;16.50;99.90
8832;DHT22;4452;50.756;4.472;2022-10-04T11:10:47;16.90;99.90
8832;DHT22;4452;50.756;4.472;2022-10-04T11:13:54;16.80;99.90
8832;DHT22;4452;50.756;4.472;2022-10-04T11:17:07;16.90;99.90
8832;DHT22;4452;50.756;4.472;2022-10-04T11:19:48;17.10;99.90
8832;DHT22;4452;50.756;4.472;2022-10-04T11:36:43;17.50;99.90
8832;DHT22;4452;50.756;4.472;2022-10-04T11:44:37;17.70;99.90
8832;DHT22;4452;50.756;4.472;2022-10-04T11:49:56;18.00;99.90
8832;DHT22;4452;50.756;4.472;2022-10-04T11:57:58;18.30;99.90
8832;DHT22;4452;50.756;4.472;2022-10-04T12:06:20;18.30;99.90
8832;DHT22;4452;50.756;4.472;2022-10-04T12:09:02;18.20;99.90
8832;DHT22;4452;50.756;4.472;2022-10-04T12:31:44;18.10;99.90
8832;DHT22;4452;50.756;4.472;2022-10-04T12:34:20;18.20;99.90
8832;DHT22;4452;50.756;4.472;2022-10-04T12:42:51;18.30;99.90
8832;DHT22;4452;50.756;4.472;2022-10-04T12:48:51;18.20;99.90
8832;DHT22;4452;50.756;4.472;2022-10-04T12:53:56;18.40;99.90
8832;DHT22;4452;50.756;4.472;2022-10-04T12:59:19;18.30;99.90
8832;DHT22;4452;50.756;4.472;2022-10-04T13:05:12;18.70;99.90
8832;DHT22;4452;50.756;4.472;2022-10-04T13:10:40;18.70;99.90
8832;DHT22;4452;50.756;4.472;2022-10-04T13:16:48;18.80;99.90
8832;DHT22;4452;50.756;4.472;2022-10-04T13:19:39;19.00;99.90
8832;DHT22;4452;50.756;4.472;2022-10-04T13:22:45;19.20;99.90
8832;DHT22;4452;50.756;4.472;2022-10-04T13:25:29;19.30;99.90
8832;DHT22;4452;50.756;4.472;2022-10-04T13:33:56;19.30;99.90
8832;DHT22;4452;50.756;4.472;2022-10-04T13:49:35;19.60;99.90
8832;DHT22;4452;50.756;4.472;2022-10-04T14:01:24;20.10;99.90
8832;DHT22;4452;50.756;4.472;2022-10-04T14:04:22;19.50;99.90
8832;DHT22;4452;50.756;4.472;2022-10-04T14:07:18;19.60;99.90
8832;DHT22;4452;50.756;4.472;2022-10-04T14:12:59;20.20;99.90
8832;DHT22;4452;50.756;4.472;2022-10-04T14:43:34;19.80;99.90
8832;DHT22;4452;50.756;4.472;2022-10-04T14:49:20;20.80;99.90
8832;DHT22;4452;50.756;4.472;2022-10-04T14:54:55;20.20;99.90
8832;DHT22;4452;50.756;4.472;2022-10-04T15:00:19;20.30;99.90
8832;DHT22;4452;50.756;4.472;2022-10-04T15:03:12;19.90;99.90
8832;DHT22;4452;50.756;4.472;2022-10-04T15:16:35;19.60;99.90
8832;DHT22;4452;50.756;4.472;2022-10-04T15:24:54;19.10;99.90
8832;DHT22;4452;50.756;4.472;2022-10-04T15:30:26;18.50;99.90
8832;DHT22;4452;50.756;4.472;2022-10-04T15:41:17;18.40;99.90
8832;DHT22;4452;50.756;4.472;2022-10-04T16:15:31;17.40;99.90
8832;DHT22;4452;50.756;4.472;2022-10-04T16:22:05;17.10;99.90
8832;DHT22;4452;50.756;4.472;2022-10-04T16:29:58;16.90;99.90
8832;DHT22;4452;50.756;4.472;2022-10-04T16:35:42;16.60;99.90
8832;DHT22;4452;50.756;4.472;2022-10-04T16:56:28;16.10;99.90
8832;DHT22;4452;50.756;4.472;2022-10-04T16:59:02;16.10;99.90
8832;DHT22;4452;50.756;4.472;2022-10-04T17:04:23;15.90;99.90
8832;DHT22;4452;50.756;4.472;2022-10-04T17:06:58;15.80;99.90
8832;DHT22;4452;50.756;4.472;2022-10-04T17:20:35;15.40;99.90
8832;DHT22;4452;50.756;4.472;2022-10-04T17:37:53;14.80;99.90
8832;DHT22;4452;50.756;4.472;2022-10-04T17:42:45;14.60;99.90
8832;DHT22;4452;50.756;4.472;2022-10-04T17:45:37;14.50;99.90
8832;DHT22;4452;50.756;4.472;2022-10-04T17:48:30;14.50;99.90
8832;DHT22;4452;50.756;4.472;2022-10-04T17:54:10;14.40;99.90
8832;DHT22;4452;50.756;4.472;2022-10-04T17:59:29;14.40;99.90
8832;DHT22;4452;50.756;4.472;2022-10-04T18:02:16;14.40;99.90
8832;DHT22;4452;50.756;4.472;2022-10-04T18:04:54;14.40;99.90
8832;DHT22;4452;50.756;4.472;2022-10-04T18:07:26;14.40;99.90
8832;DHT22;4452;50.756;4.472;2022-10-04T18:09:56;14.30;99.90
8832;DHT22;4452;50.756;4.472;2022-10-04T18:15:15;14.20;99.90
8832;DHT22;4452;50.756;4.472;2022-10-04T18:17:48;14.10;99.90
8832;DHT22;4452;50.756;4.472;2022-10-04T18:23:15;14.00;99.90
8832;DHT22;4452;50.756;4.472;2022-10-04T18:25:41;13.90;99.90
8832;DHT22;4452;50.756;4.472;2022-10-04T18:33:15;13.70;99.90
8832;DHT22;4452;50.756;4.472;2022-10-04T18:35:59;13.60;99.90
8832;DHT22;4452;50.756;4.472;2022-10-04T18:38:33;13.60;99.90
8832;DHT22;4452;50.756;4.472;2022-10-04T18:41:17;13.60;99.90
8832;DHT22;4452;50.756;4.472;2022-10-04T18:44:03;13.50;99.90
8832;DHT22;4452;50.756;4.472;2022-10-04T18:46:39;13.50;99.90
8832;DHT22;4452;50.756;4.472;2022-10-04T18:49:28;13.50;99.90
8832;DHT22;4452;50.756;4.472;2022-10-04T19:00:12;13.20;99.90
8832;DHT22;4452;50.756;4.472;2022-10-04T19:05:50;13.30;99.90
8832;DHT22;4452;50.756;4.472;2022-10-04T19:11:23;13.30;99.90
8832;DHT22;4452;50.756;4.472;2022-10-04T19:22:14;13.50;99.90
8832;DHT22;4452;50.756;4.472;2022-10-04T19:24:46;13.60;99.90
8832;DHT22;4452;50.756;4.472;2022-10-04T19:32:40;13.80;99.90
8832;DHT22;4452;50.756;4.472;2022-10-04T19:35:16;14.00;99.90
8832;DHT22;4452;50.756;4.472;2022-10-04T19:40:27;14.00;99.90
8832;DHT22;4452;50.756;4.472;2022-10-04T19:43:51;14.00;99.90
8832;DHT22;4452;50.756;4.472;2022-10-04T19:48:37;13.90;99.90
8832;DHT22;4452;50.756;4.472;2022-10-04T19:53:43;13.90;99.90
8832;DHT22;4452;50.756;4.472;2022-10-04T19:56:17;14.00;99.90
8832;DHT22;4452;50.756;4.472;2022-10-04T19:58:49;14.00;99.90
8832;DHT22;4452;50.756;4.472;2022-10-04T20:01:19;14.00;99.90
8832;DHT22;4452;50.756;4.472;2022-10-04T20:03:47;13.90;99.90
8832;DHT22;4452;50.756;4.472;2022-10-04T20:06:56;14.00;99.90
8832;DHT22;4452;50.756;4.472;2022-10-04T20:11:58;14.00;99.90
8832;DHT22;4452;50.756;4.472;2022-10-04T20:21:53;14.00;99.90
8832;DHT22;4452;50.756;4.472;2022-10-04T20:27:06;14.00;99.90
8832;DHT22;4452;50.756;4.472;2022-10-04T20:29:59;14.00;99.90
8832;DHT22;4452;50.756;4.472;2022-10-04T20:35:04;14.00;99.90
8832;DHT22;4452;50.756;4.472;2022-10-04T20:45:48;13.90;99.90
8832;DHT22;4452;50.756;4.472;2022-10-04T20:48:28;13.90;99.90
8832;DHT22;4452;50.756;4.472;2022-10-04T20:51:05;13.90;99.90
8832;DHT22;4452;50.756;4.472;2022-10-04T20:53:32;13.90;99.90
8832;DHT22;4452;50.756;4.472;2022-10-04T20:58:43;14.00;99.90
8832;DHT22;4452;50.756;4.472;2022-10-04T21:01:26;14.00;99.90
8832;DHT22;4452;50.756;4.472;2022-10-04T21:07:32;13.90;99.90
8832;DHT22;4452;50.756;4.472;2022-10-04T21:10:10;14.00;99.90
8832;DHT22;4452;50.756;4.472;2022-10-04T21:12:40;14.00;99.90
8832;DHT22;4452;50.756;4.472;2022-10-04T21:17:41;14.10;99.90
8832;DHT22;4452;50.756;4.472;2022-10-04T21:20:14;14.10;99.90
8832;DHT22;4452;50.756;4.472;2022-10-04T21:23:16;14.00;99.90
8832;DHT22;4452;50.756;4.472;2022-10-04T21:25:42;14.00;99.90
8832;DHT22;4452;50.756;4.472;2022-10-04T21:28:30;14.00;99.90
8832;DHT22;4452;50.756;4.472;2022-10-04T21:30:57;14.00;99.90
8832;DHT22;4452;50.756;4.472;2022-10-04T21:33:23;14.00;99.90
8832;DHT22;4452;50.756;4.472;2022-10-04T21:35:50;14.00;99.90
8832;DHT22;4452;50.756;4.472;2022-10-04T21:38:16;14.00;99.90
8832;DHT22;4452;50.756;4.472;2022-10-04T21:40:43;14.00;99.90
8832;DHT22;4452;50.756;4.472;2022-10-04T21:43:11;14.00;99.90
8832;DHT22;4452;50.756;4.472;2022-10-04T21:45:39;14.00;99.90
8832;DHT22;4452;50.756;4.472;2022-10-04T21:48:10;14.10;99.90
8832;DHT22;4452;50.756;4.472;2022-10-04T21:50:38;14.10;99.90
8832;DHT22;4452;50.756;4.472;2022-10-04T21:53:07;14.00;99.90
8832;DHT22;4452;50.756;4.472;2022-10-04T21:55:34;14.10;99.90
8832;DHT22;4452;50.756;4.472;2022-10-04T21:57:59;14.10;99.90
8832;DHT22;4452;50.756;4.472;2022-10-04T22:00:25;14.10;99.90
8832;DHT22;4452;50.756;4.472;2022-10-04T22:02:50;14.10;99.90
8832;DHT22;4452;50.756;4.472;2022-10-04T22:05:16;14.10;99.90
8832;DHT22;4452;50.756;4.472;2022-10-04T22:07:42;14.10;99.90
8832;DHT22;4452;50.756;4.472;2022-10-04T22:10:08;14.20;99.90
8832;DHT22;4452;50.756;4.472;2022-10-04T22:12:34;14.10;99.90
8832;DHT22;4452;50.756;4.472;2022-10-04T22:14:59;14.20;99.90
8832;DHT22;4452;50.756;4.472;2022-10-04T22:17:25;14.10;99.90
8832;DHT22;4452;50.756;4.472;2022-10-04T22:19:50;14.20;99.90
8832;DHT22;4452;50.756;4.472;2022-10-04T22:22:17;14.20;99.90
8832;DHT22;4452;50.756;4.472;2022-10-04T22:24:43;14.10;99.90
8832;DHT22;4452;50.756;4.472;2022-10-04T22:27:12;14.10;99.90
8832;DHT22;4452;50.756;4.472;2022-10-04T22:29:39;14.10;99.90
8832;DHT22;4452;50.756;4.472;2022-10-04T22:32:23;14.10;99.90
8832;DHT22;4452;50.756;4.472;2022-10-04T22:34:50;14.10;99.90
8832;DHT22;4452;50.756;4.472;2022-10-04T22:37:20;14.10;99.90
8832;DHT22;4452;50.756;4.472;2022-10-04T22:39:47;14.10;99.90
8832;DHT22;4452;50.756;4.472;2022-10-04T22:42:13;14.10;99.90
8832;DHT22;4452;50.756;4.472;2022-10-04T22:44:39;14.10;99.90
8832;DHT22;4452;50.756;4.472;2022-10-04T22:47:13;14.10;99.90
8832;DHT22;4452;50.756;4.472;2022-10-04T22:49:41;14.10;99.90
8832;DHT22;4452;50.756;4.472;2022-10-04T22:52:17;14.10;99.90
8832;DHT22;4452;50.756;4.472;2022-10-04T22:54:49;14.10;99.90
8832;DHT22;4452;50.756;4.472;2022-10-04T22:57:17;14.20;99.90
8832;DHT22;4452;50.756;4.472;2022-10-04T22:59:47;14.10;99.90
8832;DHT22;4452;50.756;4.472;2022-10-04T23:02:15;14.20;99.90
8832;DHT22;4452;50.756;4.472;2022-10-04T23:04:49;14.20;99.90
8832;DHT22;4452;50.756;4.472;2022-10-04T23:07:16;14.10;99.90
8832;DHT22;4452;50.756;4.472;2022-10-04T23:09:41;14.10;99.90
8832;DHT22;4452;50.756;4.472;2022-10-04T23:12:08;14.10;99.90
8832;DHT22;4452;50.756;4.472;2022-10-04T23:14:38;14.10;99.90
8832;DHT22;4452;50.756;4.472;2022-10-04T23:17:23;14.10;99.90
8832;DHT22;4452;50.756;4.472;2022-10-04T23:19:55;14.10;99.90
8832;DHT22;4452;50.756;4.472;2022-10-04T23:22:25;14.10;99.90
8832;DHT22;4452;50.756;4.472;2022-10-04T23:24:52;14.10;99.90
8832;DHT22;4452;50.756;4.472;2022-10-04T23:27:18;14.20;99.90
8832;DHT22;4452;50.756;4.472;2022-10-04T23:29:45;14.10;99.90
8832;DHT22;4452;50.756;4.472;2022-10-04T23:32:16;14.10;99.90
8832;DHT22;4452;50.756;4.472;2022-10-04T23:34:47;14.20;99.90
8832;DHT22;4452;50.756;4.472;2022-10-04T23:37:16;14.20;99.90
8832;DHT22;4452;50.756;4.472;2022-10-04T23:39:44;14.10;99.90
8832;DHT22;4452;50.756;4.472;2022-10-04T23:42:22;14.10;99.90
8832;DHT22;4452;50.756;4.472;2022-10-04T23:44:55;14.10;99.90
8832;DHT22;4452;50.756;4.472;2022-10-04T23:47:21;14.10;99.90
8832;DHT22;4452;50.756;4.472;2022-10-04T23:49:49;14.10;99.90
8832;DHT22;4452;50.756;4.472;2022-10-04T23:52:22;14.10;99.90
8832;DHT22;4452;50.756;4.472;2022-10-04T23:54:50;14.10;99.90
8832;DHT22;4452;50.756;4.472;2022-10-04T23:57:25;14.10;99.90
8832;DHT22;4452;50.756;4.472;2022-10-04T23:59:52;14.10;99.90
